Latest Weather Observations for Coonamble

IDN60801

Issued at 9:32 am EDT Thursday 2 April 2015 (issued every 30 minutes, with the page automatically refreshed every 10 minutes)

About weather observations | Map of weather stations | Latest weather observations for NSW | Other Formats
Station Details ID: 051161 Name: COONAMBLE AIRPORT AWS Lat: -30.98 Lon: 148.38 Height: 181.3 m
Data from the previous 72 hours. | See also: Recent months at Coonamble
Date/Time
EDT
Temp
°C
App
Temp
°C
Dew
Point
Rel
Hum
%
Delta-T
°C
Wind Press
QNH
hPa
Press
MSL
hPa
Rain
since 9 am
mm
Dir
 
Spd
km/h
Gust
km/h
Spd
kts
Gust
kts
02/09:30am 22.3 19.6 11.7 51 6.0 NNE 17 22 9 12 1020.6 1020.1 0.0
02/09:00am 22.0 20.2 12.0 53 5.7 NE 13 20 7 11 1020.7 1020.2 0.0
02/08:30am 20.9 19.5 12.1 57 5.0 NNE 11 15 6 8 1020.4 1019.9 0.0
02/08:00am 19.3 18.6 12.1 63 4.0 NNE 7 11 4 6 1020.1 1019.6 0.0
02/07:30am 18.1 16.7 11.0 63 3.9 NE 9 13 5 7 1019.7 1019.2 0.0
02/07:00am 19.0 17.8 11.6 62 4.1 NE 9 13 5 7 1019.4 1018.9 0.0
02/06:30am 19.7 17.8 11.7 60 4.5 NE 13 17 7 9 1019.0 1018.5 0.0
02/06:00am 20.2 18.3 11.9 59 4.6 NNE 13 17 7 9 1018.9 1018.4 0.0
02/05:30am 20.7 18.9 12.1 58 4.9 NNE 13 17 7 9 1018.5 1018.0 0.0
02/05:00am 21.0 19.1 11.9 56 5.1 NNE 13 19 7 10 1018.3 1017.8 0.0
02/04:30am 21.7 19.1 12.0 54 5.5 NNE 17 26 9 14 1018.3 1017.8 0.0
02/04:00am 22.1 19.1 12.1 53 5.7 NNE 19 24 10 13 1018.3 1017.8 0.0
02/03:30am 22.5 19.3 11.9 51 6.0 NNE 20 26 11 14 1018.3 1017.8 0.0
02/03:00am 23.0 19.4 11.7 49 6.4 NNE 22 33 12 18 1018.5 1018.0 0.0
02/02:30am 23.4 20.4 12.1 49 6.5 NNE 19 28 10 15 1018.8 1018.3 0.0
02/02:00am 23.5 20.5 11.9 48 6.6 NNE 19 24 10 13 1019.0 1018.5 0.0
02/01:30am 23.9 20.6 11.6 46 7.0 NNE 20 28 11 15 1019.0 1018.5 0.0
02/01:00am 24.1 21.0 12.1 47 6.9 NNE 20 28 11 15 1019.1 1018.6 0.0
02/12:30am 24.4 21.4 12.7 48 6.8 NNE 20 26 11 14 1019.4 1018.9 0.0
02/12:00am 23.7 21.3 12.7 50 6.3 NNE 17 24 9 13 1019.6 1019.1 0.0
 
Date/Time
EDT
Temp
°C
App
Temp
°C
Dew
Point
Rel
Hum
%
Delta-T
°C
Wind Press
QNH
hPa
Press
MSL
hPa
Rain
since 9 am
mm
Dir
 
Spd
km/h
Gust
km/h
Spd
kts
Gust
kts
01/11:30pm 23.8 22.4 12.1 48 6.7 NNE 11 15 6 8 1019.8 1019.3 0.0
01/11:00pm 24.1 21.8 11.8 46 7.0 NNE 15 17 8 9 1019.8 1019.3 0.0
01/10:30pm 22.6 20.9 9.7 44 7.0 ENE 9 11 5 6 1019.8 1019.3 0.0
01/10:00pm 22.5 21.1 9.6 44 7.0 ENE 7 9 4 5 1019.6 1019.1 0.0
01/09:30pm 23.1 21.3 9.5 42 7.4 ENE 9 9 5 5 1019.2 1018.7 0.0
01/09:00pm 22.1 20.5 8.9 43 7.1 E 7 9 4 5 1018.9 1018.4 0.0
01/08:30pm 23.0 21.5 8.3 39 7.8 ENE 6 7 3 4 1018.6 1018.1 0.0
01/08:00pm 25.0 23.5 9.3 37 8.6 ENE 7 9 4 5 1018.4 1017.9 0.0
01/07:30pm 26.5 25.3 9.4 34 9.5 N 6 7 3 4 1018.1 1017.6 0.0
01/07:00pm 27.3 25.4 9.2 32 10.0 NNE 9 13 5 7 1017.8 1017.3 0.0
01/06:30pm 28.6 26.0 9.3 30 10.8 ENE 13 17 7 9 1017.5 1017.0 0.0
01/06:00pm 28.7 26.0 8.9 29 11.0 NNE 13 20 7 11 1017.6 1017.1 0.0
01/05:30pm 29.3 26.7 9.4 29 11.2 NE 13 26 7 14 1017.5 1017.0 0.0
01/05:00pm 28.7 25.6 8.9 29 11.0 NE 15 20 8 11 1017.6 1017.1 0.0
01/04:30pm 29.4 26.8 9.5 29 11.2 N 13 19 7 10 1017.7 1017.2 0.0
01/04:00pm 28.9 25.7 10.1 31 10.7 NE 17 22 9 12 1018.0 1017.5 0.0
01/03:30pm 29.2 26.3 9.8 30 11.0 NE 15 22 8 12 1018.3 1017.8 0.0
01/03:00pm 28.9 25.7 10.1 31 10.6 NNE 17 26 9 14 1018.7 1018.2 0.0
01/02:30pm 29.0 25.7 9.7 30 10.9 NNE 17 28 9 15 1019.2 1018.7 0.0
01/02:00pm 27.2 23.9 10.8 36 9.3 N 19 28 10 15 1019.7 1019.2 0.0
01/01:30pm 27.7 24.5 11.3 36 9.4 NNE 19 30 10 16 1020.2 1019.7 0.0
01/01:00pm 27.0 24.4 11.9 39 8.7 N 17 28 9 15 1020.9 1020.4 0.0
01/12:30pm 26.5 24.7 12.2 41 8.3 N 13 24 7 13 1021.5 1021.0 0.0
01/12:00pm 25.8 23.5 11.9 42 8.0 NNE 15 22 8 12 1022.0 1021.6 0.0
01/11:30am 26.4 24.0 12.8 43 8.0 N 17 28 9 15 1022.3 1021.9 0.0
01/11:00am 24.8 22.7 12.4 46 7.1 NNE 15 24 8 13 1022.7 1022.3 0.0
01/10:30am 24.3 21.6 12.9 49 6.6 NNE 19 26 10 14 1023.0 1022.2 0.0
01/10:00am 23.7 21.0 13.6 53 5.9 NNE 20 33 11 18 1023.0 1022.2 0.0
01/09:30am 22.8 20.0 13.3 55 5.5 NE 20 30 11 16 1023.0 1022.2 0.0
01/09:00am 21.6 19.1 13.5 60 4.7 ENE 19 26 10 14 1022.6 1021.8 0.0
01/08:30am 19.8 17.8 14.0 69 3.4 ENE 17 22 9 12 1022.4 1021.6 0.0
01/08:00am 18.4 16.8 13.9 75 2.6 ENE 15 19 8 10 1022.1 1021.3 0.0
01/07:30am 17.4 16.1 13.7 79 2.1 ENE 13 17 7 9 1021.9 1021.1 0.0
01/07:00am 17.6 15.5 13.7 78 2.2 ENE 17 22 9 12 1021.6 1020.8 0.0
01/06:30am 17.6 15.5 13.7 78 2.2 ENE 17 20 9 11 1021.5 1020.7 0.0
01/06:00am 17.4 16.1 13.7 79 2.1 E 13 17 7 9 1021.2 1020.4 0.0
01/05:30am 17.3 16.3 13.4 78 2.2 ENE 11 15 6 8 1021.1 1020.3 0.0
01/05:00am 17.9 16.1 13.4 75 2.6 ENE 15 19 8 10 1021.0 1020.2 0.0
01/04:30am 18.1 16.0 13.6 75 2.6 ENE 17 20 9 11 1021.0 1020.2 0.0
01/04:00am 17.2 16.0 12.7 75 2.5 E 11 15 6 8 1021.2 1020.4 0.0
01/03:30am 17.2 15.8 12.3 73 2.7 E 11 15 6 8 1021.4 1020.6 0.0
01/03:00am 17.2 16.2 12.3 73 2.7 E 9 13 5 7 1021.6 1020.8 0.0
01/02:30am 16.4 15.0 10.9 70 3.0 E 9 11 5 6 1021.8 1021.0 0.0
01/02:00am 18.0 16.9 11.8 67 3.4 ESE 9 11 5 6 1022.1 1021.3 0.0
01/01:30am 18.3 16.9 10.9 62 4.0 ESE 9 13 5 7 1022.3 1021.5 0.0
01/01:00am 18.9 17.7 11.7 63 4.0 ESE 9 13 5 7 1022.3 1021.5 0.0
01/12:30am 19.3 17.5 10.8 58 4.7 SE 11 15 6 8 1022.2 1021.4 0.0
01/12:00am 20.3 18.2 11.0 55 5.1 E 13 20 7 11 1022.1 1021.3 0.0
 
Date/Time
EDT
Temp
°C
App
Temp
°C
Dew
Point
Rel
Hum
%
Delta-T
°C
Wind Press
QNH
hPa
Press
MSL
hPa
Rain
since 9 am
mm
Dir
 
Spd
km/h
Gust
km/h
Spd
kts
Gust
kts
31/11:30pm 20.2 18.0 9.5 50 5.7 E 11 15 6 8 1021.9 1021.1 0.0
31/11:00pm 19.1 17.1 8.7 51 5.4 E 9 13 5 7 1022.0 1021.2 0.0
31/10:30pm 19.4 17.4 8.7 50 5.6 ESE 9 11 5 6 1022.0 1021.2 0.0
31/10:00pm 19.3 17.7 8.9 51 5.5 E 7 9 4 5 1021.9 1021.1 0.0
31/09:30pm 18.8 17.2 8.7 52 5.3 E 7 7 4 4 1021.7 1020.9 0.0
31/09:00pm 20.3 18.7 10.1 52 5.5 E 9 20 5 11 1021.4 1020.6 0.0
31/08:30pm 20.3 20.4 10.1 52 5.5 CALM 0 0 0 0 1021.0 1020.2 0.0
31/08:00pm 20.7 20.0 10.2 51 5.7 ESE 4 7 2 4 1020.7 1019.9 0.0
31/07:30pm 22.8 21.8 10.3 45 6.9 NE 6 6 3 3 1020.3 1019.5 0.0
31/07:00pm 24.2 22.9 10.1 41 7.8 NE 7 9 4 5 1020.3 1019.5 0.0
31/06:30pm 25.2 22.9 10.3 39 8.3 NE 13 15 7 8 1020.3 1019.5 0.0
31/06:00pm 25.5 23.6 8.9 35 9.1 ENE 9 13 5 7 1020.1 1019.3 0.0
31/05:30pm 25.4 23.0 10.1 38 8.5 ENE 13 19 7 10 1020.1 1019.3 0.0
31/05:00pm 24.9 22.1 11.5 43 7.6 NNE 17 26 9 14 1020.1 1019.3 0.0
31/04:30pm 25.5 22.5 10.5 39 8.4 ENE 17 24 9 13 1020.1 1019.3 0.0
31/04:00pm 26.9 23.5 9.3 33 9.7 E 17 28 9 15 1020.1 1019.3 0.0
31/03:30pm 26.5 21.5 9.4 34 9.5 SE 26 32 14 17 1020.3 1019.5 0.0
31/03:00pm 25.8 19.9 10.4 38 8.6 ESE 32 39 17 21 1020.6 1019.8 0.0
31/02:30pm 27.2 24.9 10.4 35 9.5 SE 13 37 7 20 1020.7 1019.9 0.0
31/02:00pm 27.4 25.7 9.7 33 9.9 NNE 9 17 5 9 1020.9 1020.1 0.0
31/01:30pm 26.9 25.1 11.0 37 9.1 NNE 11 19 6 10 1021.4 1020.6 0.0
31/01:00pm 27.9 26.3 11.5 36 9.4 NE 11 19 6 10 1021.9 1021.1 0.0
31/12:30pm 27.0 25.5 11.9 39 8.7 E 11 22 6 12 1022.6 1021.8 0.0
31/12:00pm 25.6 24.5 13.1 46 7.3 ENE 11 17 6 9 1023.2 1022.3 0.0
31/11:30am 27.0 25.7 13.7 44 7.9 ENE 13 22 7 12 1023.4 1022.5 0.0
31/11:00am 26.5 25.1 14.6 48 7.2 NE 15 22 8 12 1023.6 1022.7 0.0
31/10:30am 25.4 24.1 14.8 52 6.4 NNE 15 24 8 13 1023.7 1022.8 0.0
31/10:00am 24.2 23.2 14.6 55 5.7 NE 13 19 7 10 1023.9 1023.0 0.0
31/09:30am 23.6 22.0 15.1 59 5.1 ENE 17 20 9 11 1023.7 1022.8 0.0
31/09:00am 22.1 21.0 15.2 65 4.1 ENE 15 17 8 9 1023.5 1022.6 0.0
31/08:30am 19.9 18.8 15.3 75 2.7 ENE 15 19 8 10 1023.2 1022.3 0.0
31/08:00am 17.1 16.7 15.3 89 1.1 ENE 11 13 6 7 1022.8 1022.0 0.0
31/07:30am 15.3 14.4 13.7 90 0.9 ENE 11 11 6 6 1022.6 1021.8 0.0
31/07:00am 15.2 14.6 13.4 89 1.0 ENE 9 11 5 6 1022.3 1021.5 0.0
31/06:30am 15.5 15.0 13.9 90 0.9 ENE 9 11 5 6 1022.0 1021.2 0.0
31/06:00am 15.4 15.0 14.1 92 0.7 ENE 9 11 5 6 1021.8 1021.0 0.0
31/05:30am 16.5 16.9 15.4 93 0.6 E 7 9 4 5 1021.7 1020.9 0.0
31/05:00am 16.6 17.0 15.3 92 0.8 ENE 7 9 4 5 1021.6 1020.8 0.0
31/04:30am 16.7 17.0 14.9 89 1.0 ESE 7 9 4 5 1021.6 1020.8 0.0
31/04:00am 16.9 16.8 14.9 88 1.2 ESE 9 11 5 6 1021.8 1021.0 0.0
31/03:30am 17.5 17.1 15.3 87 1.3 SE 11 11 6 6 1022.0 1021.2 0.0
31/03:00am 18.1 17.4 15.5 85 1.5 SSE 13 17 7 9 1022.4 1021.6 0.0
31/02:30am 18.2 17.6 15.6 85 1.5 SE 13 15 7 8 1022.5 1021.7 0.0
31/02:00am 17.8 17.7 14.9 83 1.7 SSE 9 11 5 6 1022.7 1021.9 0.0
31/01:30am 19.0 19.3 16.0 83 1.8 ESE 9 11 5 6 1022.6 1021.8 0.0
31/01:00am 18.9 19.0 15.4 80 2.1 E 9 13 5 7 1022.4 1021.6 0.0
31/12:30am 19.2 18.8 15.3 78 2.3 ENE 11 15 6 8 1022.4 1021.6 0.0
31/12:00am 20.5 21.0 15.5 73 3.0 NE 7 11 4 6 1022.5 1021.7 0.0
 
Date/Time
EDT
Temp
°C
App
Temp
°C
Dew
Point
Rel
Hum
%
Delta-T
°C
Wind Press
QNH
hPa
Press
MSL
hPa
Rain
since 9 am
mm
Dir
 
Spd
km/h
Gust
km/h
Spd
kts
Gust
kts
30/11:30pm 21.5 21.0 16.0 71 3.3 NNE 13 17 7 9 1022.5 1021.7 0.0
30/11:00pm 22.2 21.7 16.0 68 3.8 NNE 13 22 7 12 1022.4 1021.6 0.0
30/10:30pm 22.7 21.9 15.0 61 4.6 NNE 13 19 7 10 1022.4 1021.6 0.0
30/10:00pm 23.1 21.4 13.6 55 5.5 NE 15 24 8 13 1022.2 1021.4 0.0
30/09:30pm 23.9 21.8 11.2 44 7.2 NNE 13 22 7 12 1021.9 1021.1 0.0
30/09:00pm 23.1 21.2 10.5 45 7.0 NNE 11 15 6 8 1021.7 1020.9 0.0
30/08:30pm 22.8 21.2 10.3 45 6.9 NE 9 11 5 6 1021.4 1020.6 0.0
30/08:00pm 24.1 22.6 10.7 43 7.5 NE 9 13 5 7 1021.2 1020.4 0.0
30/07:30pm 25.1 23.4 11.3 42 7.8 NE 11 15 6 8 1021.0 1020.2 0.0
30/07:00pm 25.7 24.0 11.1 40 8.3 NNE 11 15 6 8 1020.7 1019.9 0.0
30/06:30pm 26.8 24.5 11.7 39 8.7 NE 15 20 8 11 1020.6 1019.8 0.0
30/06:00pm 27.7 24.5 11.3 36 9.4 NE 19 26 10 14 1020.3 1019.5 0.0
30/05:30pm 28.2 24.4 11.3 35 9.8 NNE 22 32 12 17 1019.9 1019.1 0.0
30/05:00pm 27.8 24.5 9.6 32 10.2 NNE 17 24 9 13 1019.7 1018.9 0.0
30/04:30pm 28.5 24.6 8.7 29 11.0 N 19 28 10 15 1019.5 1018.7 0.0
30/04:00pm 28.8 25.7 3.6 20 12.8 ENE 9 13 5 7 1019.4 1018.5 0.0
30/03:30pm 30.2 27.7 4.0 19 13.5 NE 6 11 3 6 1019.5 1018.7 0.0
30/03:00pm 29.1 24.8 3.1 19 13.1 NE 15 22 8 12 1019.8 1019.0 0.0
30/02:30pm 29.3 26.1 3.3 19 13.2 ENE 9 19 5 10 1020.2 1019.4 0.0
30/02:00pm 27.8 24.4 4.2 22 12.0 NE 11 20 6 11 1020.7 1019.9 0.0
30/01:30pm 27.6 23.7 3.3 21 12.2 NE 13 20 7 11 1021.2 1020.4 0.0
30/01:00pm 28.1 24.3 3.7 21 12.3 NE 13 19 7 10 1021.6 1020.8 0.0
30/12:30pm 28.1 24.6 3.7 21 12.4 N 11 22 6 12 1021.9 1021.1 0.0
30/12:00pm 27.5 24.4 5.7 25 11.4 N 11 15 6 8 1022.4 1021.6 0.0
30/11:30am 26.0 22.6 6.1 28 10.4 NNE 13 19 7 10 1022.7 1021.9 0.0
30/11:00am 25.4 22.3 7.1 31 9.7 NNE 13 20 7 11 1022.8 1022.0 0.0
30/10:30am 24.2 22.0 9.4 39 8.1 NNE 11 17 6 9 1022.9 1022.1 0.0
30/10:00am 22.2 21.3 12.7 55 5.4 NE 9 13 5 7 1022.9 1022.1 0.0

Other Formats:

Comma delimited format used in spreadsheet applications
http://www.bom.gov.au/fwo/IDN60801/IDN60801.95718.axf

JavaScript Object Notation format (JSON) in row-major order
http://www.bom.gov.au/fwo/IDN60801/IDN60801.95718.json